createdAt,value
2017-09-19T00:01:40.112Z,13.50
2017-09-19T00:04:41.663Z,13.00
2017-09-19T00:07:43.210Z,13.50
2017-09-19T00:10:45.415Z,12.50
2017-09-19T00:13:48.461Z,12.90
2017-09-19T00:16:50.099Z,12.50
2017-09-19T00:19:56.968Z,12.60
2017-09-19T00:22:58.631Z,12.90
2017-09-19T00:26:00.206Z,12.60
2017-09-19T00:29:01.776Z,12.40
2017-09-19T00:32:03.325Z,12.50
2017-09-19T00:35:05.903Z,12.50
2017-09-19T00:38:07.479Z,13.80
2017-09-19T04:07:28.061Z,12.50
2017-09-19T04:10:31.558Z,12.60
2017-09-19T04:13:33.278Z,13.60
2017-09-19T04:16:37.669Z,12.60
2017-09-19T04:19:39.976Z,12.60
2017-09-19T04:22:42.248Z,12.70
2017-09-19T04:25:44.001Z,12.40
2017-09-19T04:28:47.524Z,12.80
2017-09-19T04:31:51.206Z,12.40
2017-09-19T04:34:52.845Z,11.70
2017-09-19T04:37:57.816Z,12.70
2017-09-19T04:40:59.479Z,13.40
2017-09-19T04:44:01.776Z,12.00
2017-09-19T04:47:04.245Z,12.60
2017-09-19T04:50:08.832Z,12.60
2017-09-19T04:53:10.515Z,11.40
2017-09-19T04:56:14.987Z,12.70
2017-09-19T04:59:18.040Z,11.90
2017-09-19T05:02:19.786Z,13.80
2017-09-19T05:05:21.567Z,12.60
2017-09-19T05:08:23.902Z,12.60
2017-09-19T05:11:25.581Z,12.70
2017-09-19T05:14:27.294Z,13.60
2017-09-19T05:17:29.621Z,12.20
2017-09-19T05:20:32.122Z,12.30
2017-09-19T05:23:34.473Z,12.60
2017-09-19T05:26:37.827Z,13.80
2017-09-19T05:29:39.424Z,12.40
2017-09-19T05:32:41.097Z,12.50
2017-09-19T05:35:43.511Z,12.70
2017-09-19T05:38:46.663Z,12.70
2017-09-19T05:41:49.191Z,12.60
2017-09-19T05:44:51.885Z,12.90
2017-09-19T05:47:53.787Z,12.50
2017-09-19T05:51:04.714Z,14.10
2017-09-19T05:54:06.272Z,12.50
2017-09-19T05:57:07.910Z,12.60
2017-09-19T06:00:13.480Z,12.40
2017-09-19T06:03:15.156Z,11.50
2017-09-19T06:06:17.762Z,12.10
2017-09-19T06:09:39.552Z,12.70
2017-09-19T06:12:42.590Z,12.70
2017-09-19T06:18:52.627Z,11.60
2017-09-19T06:21:54.271Z,12.30
2017-09-19T06:24:55.906Z,12.50
2017-09-19T06:27:58.131Z,12.40
2017-09-19T06:31:00.852Z,12.80
2017-09-19T06:34:04.085Z,13.60
2017-09-19T06:37:05.749Z,12.80
2017-09-19T06:40:07.800Z,13.90
2017-09-19T06:43:10.297Z,13.60
2017-09-19T06:46:12.661Z,12.80
2017-09-19T06:49:16.613Z,12.60
2017-09-19T06:52:19.885Z,12.80
2017-09-19T06:55:23.075Z,12.70
2017-09-19T06:58:26.269Z,12.90
2017-09-19T07:01:28.035Z,12.70
2017-09-19T07:04:30.372Z,12.60
2017-09-19T07:07:32.770Z,12.60
2017-09-19T07:10:37.214Z,12.50
2017-09-19T07:13:38.862Z,13.70
2017-09-19T07:16:40.389Z,13.60
2017-09-19T07:19:41.886Z,12.50
2017-09-19T07:22:44.974Z,13.40
2017-09-19T07:25:47.449Z,11.90
2017-09-19T07:31:57.719Z,11.50
2017-09-19T07:34:59.190Z,13.60
2017-09-19T07:38:00.780Z,13.20
2017-09-19T07:41:02.526Z,13.30
2017-09-19T07:44:12.104Z,12.80
2017-09-19T07:47:28.602Z,14.30
2017-09-19T07:50:56.591Z,13.90
2017-09-19T07:54:08.070Z,12.80
2017-09-19T07:57:21.665Z,12.60
2017-09-19T08:26:39.075Z,13.20
2017-09-19T08:29:43.825Z,12.40
2017-09-19T08:32:48.942Z,13.20
2017-09-19T08:35:53.082Z,13.00
2017-09-19T08:38:56.501Z,13.30
2017-09-19T08:42:01.627Z,13.10
2017-09-19T08:45:14.071Z,13.20
2017-09-19T08:48:19.378Z,13.90
2017-09-19T08:51:22.259Z,13.10
2017-09-19T08:54:28.247Z,14.70
2017-09-19T08:57:30.071Z,14.60
2017-09-19T09:00:32.735Z,15.00
2017-09-19T09:03:41.032Z,13.10
2017-09-19T09:13:00.140Z,13.90
2017-09-19T09:16:03.288Z,13.40
2017-09-19T09:19:06.043Z,13.10
2017-09-19T09:22:12.469Z,13.80
2017-09-19T09:25:14.962Z,13.50
2017-09-19T09:28:16.661Z,12.40
2017-09-19T09:31:19.272Z,13.60
2017-09-19T09:34:20.999Z,14.10
2017-09-19T09:37:23.287Z,13.70
2017-09-19T09:40:26.089Z,13.80
2017-09-19T09:43:27.733Z,13.60
2017-09-19T09:46:29.564Z,13.60
2017-09-19T09:49:31.092Z,13.90
2017-09-19T09:52:32.620Z,12.90
2017-09-19T09:55:34.211Z,14.20
2017-09-19T09:58:36.556Z,14.10
2017-09-19T10:01:38.145Z,13.30
2017-09-19T10:04:39.752Z,13.60
2017-09-19T10:07:41.338Z,13.20
2017-09-19T10:10:42.886Z,14.20
2017-09-19T10:13:44.604Z,15.40
2017-09-19T10:19:55.305Z,12.50
2017-09-19T10:22:56.932Z,13.20
2017-09-19T10:25:58.651Z,13.70
2017-09-19T10:29:01.211Z,12.80
2017-09-19T10:32:04.410Z,13.40
2017-09-19T10:35:06.103Z,14.60
2017-09-19T10:38:08.615Z,13.60
2017-09-19T10:41:10.332Z,13.50
2017-09-19T10:44:17.145Z,13.70
2017-09-19T10:47:19.455Z,14.90
2017-09-19T10:50:21.889Z,13.80
2017-09-19T10:53:23.679Z,14.00
2017-09-19T10:56:25.722Z,13.90
2017-09-19T10:59:27.317Z,14.00
2017-09-19T11:02:29.005Z,14.40
2017-09-19T11:05:30.534Z,14.30
2017-09-19T11:08:32.258Z,14.70
2017-09-19T11:11:33.873Z,15.20
2017-09-19T11:14:35.463Z,15.30
2017-09-19T11:20:46.116Z,14.60
2017-09-19T11:23:47.865Z,16.40
2017-09-19T11:26:50.144Z,15.50
2017-09-19T11:29:51.846Z,15.10
2017-09-19T11:32:53.441Z,15.30
2017-09-19T11:35:56.737Z,14.60
2017-09-19T11:38:58.435Z,14.70
2017-09-19T11:42:00.775Z,14.70
2017-09-19T11:45:02.877Z,15.00
2017-09-19T11:48:04.518Z,14.00
2017-09-19T11:51:06.206Z,14.20
2017-09-19T11:54:08.485Z,14.60
2017-09-19T11:57:10.082Z,13.60
2017-09-19T12:00:11.775Z,14.50
2017-09-19T12:03:14.203Z,14.30
2017-09-19T12:06:15.949Z,14.80
2017-09-19T12:09:17.557Z,13.60
2017-09-19T12:12:19.189Z,13.40
2017-09-19T12:15:20.766Z,13.80
2017-09-19T12:18:23.096Z,14.20
2017-09-19T12:21:24.782Z,15.20
2017-09-19T12:24:26.561Z,15.50
2017-09-19T12:27:29.572Z,15.10
2017-09-19T13:21:02.191Z,14.50
2017-09-19T13:24:10.320Z,13.90
2017-09-19T13:27:12.997Z,15.50
2017-09-19T13:30:16.651Z,15.30
2017-09-19T13:33:39.683Z,14.60
2017-09-19T13:36:46.415Z,15.60
2017-09-19T13:39:48.756Z,14.60
2017-09-19T13:42:51.446Z,14.70
2017-09-19T13:45:55.469Z,13.90
2017-09-19T13:48:57.841Z,16.60
2017-09-19T13:51:59.469Z,16.50
2017-09-19T13:55:01.025Z,16.70
2017-09-19T13:58:02.580Z,17.50
2017-09-19T14:01:04.379Z,17.90
2017-09-19T14:04:06.968Z,18.00
2017-09-19T14:07:08.618Z,16.50
2017-09-19T14:10:10.945Z,18.30
2017-09-19T14:13:12.505Z,18.00
2017-09-19T14:16:14.440Z,18.10
2017-09-19T14:19:21.155Z,18.30
2017-09-19T14:22:22.792Z,18.30
2017-09-19T14:25:24.365Z,19.20
2017-09-19T14:28:25.890Z,19.60
2017-09-19T14:31:27.437Z,18.00
2017-09-19T14:34:28.957Z,17.40
2017-09-19T14:37:31.232Z,17.30
2017-09-19T14:40:32.822Z,17.70
2017-09-19T14:43:34.507Z,16.20
2017-09-19T14:46:36.022Z,17.60
2017-09-19T14:49:37.561Z,17.00
2017-09-19T14:52:39.116Z,17.80
2017-09-19T14:55:41.413Z,17.70
2017-09-19T14:58:43.065Z,17.10
2017-09-19T15:01:44.544Z,17.70
2017-09-19T15:04:46.473Z,17.20
2017-09-19T15:07:48.693Z,17.30
2017-09-19T15:10:50.176Z,17.50
2017-09-19T15:13:52.401Z,17.40
2017-09-19T15:16:53.934Z,17.10
2017-09-19T15:19:55.470Z,17.60
2017-09-19T15:22:58.214Z,18.30
2017-09-19T15:25:59.634Z,18.10
2017-09-19T15:29:01.847Z,17.90
2017-09-19T15:32:03.451Z,17.80
2017-09-19T15:35:05.023Z,16.80
2017-09-19T15:38:08.730Z,17.20
2017-09-19T15:41:10.248Z,16.70
2017-09-19T15:44:12.048Z,16.70
2017-09-19T15:47:13.650Z,16.60
2017-09-19T15:50:15.820Z,16.30
2017-09-19T15:53:18.136Z,16.20
2017-09-19T15:56:19.623Z,15.30
2017-09-19T15:59:21.912Z,15.60
2017-09-19T16:02:23.352Z,17.30
2017-09-19T16:05:24.882Z,15.60
2017-09-19T16:08:27.302Z,17.00
2017-09-19T16:11:29.529Z,15.40
2017-09-19T16:14:31.086Z,15.60
2017-09-19T16:17:32.708Z,15.60
2017-09-19T16:20:34.274Z,14.60
2017-09-19T16:23:35.978Z,15.00
2017-09-19T16:26:37.635Z,15.30
2017-09-19T16:29:39.966Z,15.50
2017-09-19T16:32:41.565Z,14.80
2017-09-19T16:35:43.909Z,15.30
2017-09-19T16:38:45.528Z,16.40
2017-09-19T16:41:48.354Z,14.80
2017-09-19T16:44:50.065Z,14.60
2017-09-19T16:47:56.237Z,14.70
2017-09-19T16:51:00.296Z,15.70
2017-09-19T16:54:02.823Z,14.70
2017-09-19T16:57:04.349Z,15.10
2017-09-19T17:00:05.965Z,13.70
2017-09-19T17:03:08.687Z,15.80
2017-09-19T17:06:10.240Z,15.20
2017-09-19T17:09:11.914Z,15.80
2017-09-19T17:12:13.774Z,14.60
2017-09-19T17:15:15.342Z,14.80
2017-09-19T17:18:16.938Z,14.20
2017-09-19T17:21:18.992Z,14.60
2017-09-19T17:24:20.579Z,14.40
2017-09-19T17:27:27.222Z,14.20
2017-09-19T17:30:37.858Z,14.20
2017-09-19T17:33:41.033Z,15.50
2017-09-19T17:36:42.861Z,14.90
2017-09-19T17:46:41.586Z,14.00
2017-09-19T17:49:43.563Z,13.70
2017-09-19T17:52:50.401Z,14.10
2017-09-19T17:59:02.137Z,14.20
2017-09-19T18:02:06.850Z,13.60
2017-09-19T18:05:11.606Z,15.00
2017-09-19T18:08:16.911Z,13.90
2017-09-19T18:11:18.460Z,13.00
2017-09-19T18:14:20.075Z,14.30
2017-09-19T18:17:22.646Z,13.60
2017-09-19T18:20:24.142Z,15.20
2017-09-19T18:23:25.765Z,13.30
2017-09-19T18:26:28.035Z,13.60
2017-09-19T18:29:53.688Z,13.60
2017-09-19T19:44:48.824Z,13.00
2017-09-19T19:47:50.376Z,12.10
2017-09-19T19:50:53.012Z,13.90
2017-09-19T19:54:11.478Z,13.00
2017-09-19T19:57:30.924Z,13.00
2017-09-19T20:00:35.526Z,12.90
2017-09-19T20:03:46.727Z,12.80
2017-09-19T20:07:01.586Z,13.60
2017-09-19T20:10:11.303Z,13.00
2017-09-19T20:13:13.839Z,13.80
2017-09-19T20:16:18.307Z,12.60
2017-09-19T20:19:20.528Z,13.80
2017-09-19T20:22:24.664Z,13.10
2017-09-19T20:25:27.169Z,13.40
2017-09-19T20:28:29.905Z,13.70
2017-09-19T20:31:38.709Z,13.30
2017-09-19T20:45:11.584Z,12.80
2017-09-19T21:13:35.965Z,12.90
2017-09-19T21:16:43.615Z,13.00
2017-09-19T21:19:45.776Z,12.90
2017-09-19T21:22:48.157Z,12.90
2017-09-19T21:29:31.100Z,12.90
2017-09-19T21:33:17.590Z,13.00
